Time;durP1;ratioP1;P1;durP2;ratioP2;P2;SDS_P1;SDS_P2;PMS_P1;PMS_P2;Temp;Humidity;BMP_temperature;BMP_pressure;BME280_temperature;BME280_humidity;BME280_pressure;Samples;Min_cycle;Max_cycle;Signal;HPM_P1;HPM_P2
2021/08/29 00:01:00;;;;;;;7.10;6.43;;;15.70;88.20;;;;;;4980122;28;20197;-87
2021/08/29 00:03:26;;;;;;;7.73;6.87;;;15.60;88.40;;;;;;4980701;28;20293;-86
2021/08/29 00:05:52;;;;;;;6.77;6.27;;;15.40;88.90;;;;;;4976493;28;20208;-87
2021/08/29 00:08:18;;;;;;;6.77;6.17;;;15.30;90.50;;;;;;4980167;28;20663;-87
2021/08/29 00:10:44;;;;;;;6.90;6.30;;;15.30;90.40;;;;;;4990401;28;20188;-87
2021/08/29 00:13:09;;;;;;;8.13;7.43;;;15.20;91.10;;;;;;5011887;28;20495;-88
2021/08/29 00:15:35;;;;;;;8.07;7.20;;;15.10;91.00;;;;;;5009774;28;20197;-88
2021/08/29 00:18:01;;;;;;;7.83;7.23;;;15.10;91.30;;;;;;5001966;28;20193;-86
2021/08/29 00:20:27;;;;;;;8.07;6.73;;;15.10;91.60;;;;;;4993582;28;20185;-87
2021/08/29 00:22:52;;;;;;;7.47;6.87;;;15.00;91.50;;;;;;4992487;28;20191;-87
2021/08/29 00:25:18;;;;;;;8.00;7.30;;;15.10;91.50;;;;;;4986870;28;20205;-87
2021/08/29 00:27:43;;;;;;;7.83;7.23;;;15.10;91.40;;;;;;4973825;28;20592;-88
2021/08/29 00:30:10;;;;;;;8.73;7.90;;;15.20;91.50;;;;;;4994747;28;20191;-87
2021/08/29 00:32:35;;;;;;;7.90;7.10;;;15.30;90.30;;;;;;4979676;28;20322;-87
2021/08/29 00:35:01;;;;;;;8.00;7.40;;;15.30;90.40;;;;;;4989108;28;20226;-87
2021/08/29 00:37:27;;;;;;;8.33;7.63;;;15.30;90.80;;;;;;4993038;28;20673;-87
2021/08/29 00:39:52;;;;;;;7.50;6.80;;;15.40;90.10;;;;;;4979684;28;20199;-87
2021/08/29 00:42:18;;;;;;;6.40;5.90;;;15.50;90.40;;;;;;4984428;28;20196;-87
2021/08/29 00:44:44;;;;;;;7.87;7.17;;;15.50;90.80;;;;;;4999156;28;20217;-89
2021/08/29 00:47:09;;;;;;;7.00;6.40;;;15.60;89.70;;;;;;5019065;28;20260;-88
2021/08/29 00:49:39;;;;;;;7.73;7.03;;;15.60;90.20;;;;;;4994463;28;20282;-87
2021/08/29 00:52:06;;;;;;;7.23;6.53;;;15.50;90.20;;;;;;4991531;28;20197;-86
2021/08/29 00:54:33;;;;;;;8.10;7.40;;;15.50;91.00;;;;;;4998019;28;20266;-89
2021/08/29 00:57:03;;;;;;;9.27;8.47;;;15.40;91.20;;;;;;5014327;28;20194;-90
2021/08/29 00:59:29;;;;;;;9.10;8.17;;;15.20;92.00;;;;;;4993343;28;20273;-87
2021/08/29 01:02:01;;;;;;;8.70;8.00;;;15.20;93.40;;;;;;4992166;28;20275;-87
2021/08/29 01:04:34;;;;;;;8.97;8.17;;;15.10;93.60;;;;;;4977216;28;20205;-87
2021/08/29 01:07:22;;;;;;;8.70;8.00;;;15.00;94.10;;;;;;4988837;28;20189;-87
2021/08/29 01:09:54;;;;;;;8.97;8.17;;;15.00;95.20;;;;;;4988748;28;20186;-86
2021/08/29 01:12:22;;;;;;;8.43;7.63;;;14.80;95.40;;;;;;4991062;28;20704;-87
2021/08/29 01:14:51;;;;;;;10.03;8.20;;;14.70;95.50;;;;;;4986571;28;20222;-87
2021/08/29 01:17:18;;;;;;;8.40;7.70;;;14.70;96.10;;;;;;4982842;28;20262;-86
2021/08/29 01:20:19;;;;;;;7.87;7.27;;;14.90;95.70;;;;;;4990425;28;20215;-88
2021/08/29 01:22:46;;;;;;;10.33;8.13;;;14.90;94.50;;;;;;4973867;28;20242;-87
2021/08/29 01:25:21;;;;;;;8.10;7.40;;;14.90;94.70;;;;;;4980732;28;20220;-87
2021/08/29 01:27:52;;;;;;;9.17;8.40;;;15.00;94.80;;;;;;4982103;28;20210;-87
2021/08/29 01:30:18;;;;;;;8.97;8.03;;;15.10;94.60;;;;;;4990432;28;20221;-87
2021/08/29 01:32:45;;;;;;;9.50;8.63;;;15.20;93.90;;;;;;4974063;28;20297;-87
2021/08/29 01:35:13;;;;;;;8.40;7.70;;;15.20;93.80;;;;;;4986996;28;20231;-86
2021/08/29 01:37:40;;;;;;;9.30;7.90;;;15.30;93.60;;;;;;4982835;28;20219;-88
2021/08/29 01:40:07;;;;;;;8.00;7.27;;;15.20;93.60;;;;;;4976820;28;20221;-87
2021/08/29 01:42:33;;;;;;;8.60;7.87;;;15.20;93.90;;;;;;4990589;28;20574;-87
2021/08/29 01:44:59;;;;;;;8.10;7.40;;;15.10;94.00;;;;;;4985833;28;20251;-87
2021/08/29 01:47:26;;;;;;;8.50;7.60;;;15.10;93.80;;;;;;4989841;28;20195;-87
2021/08/29 01:49:52;;;;;;;8.57;7.77;;;15.10;94.20;;;;;;5016266;28;20245;-87
2021/08/29 01:52:17;;;;;;;7.77;7.07;;;15.20;93.90;;;;;;4990673;28;20207;-87
2021/08/29 01:54:44;;;;;;;8.33;7.60;;;15.20;93.40;;;;;;4983979;28;20231;-88
2021/08/29 01:57:15;;;;;;;8.23;7.43;;;15.30;93.90;;;;;;4990547;28;20255;-89
2021/08/29 01:59:43;;;;;;;7.63;7.00;;;15.30;93.90;;;;;;4975561;28;20268;-87
2021/08/29 02:02:13;;;;;;;8.33;7.57;;;15.30;93.90;;;;;;4982065;28;20189;-87
2021/08/29 02:04:42;;;;;;;8.17;7.43;;;15.30;94.10;;;;;;4991245;28;20215;-87
2021/08/29 02:07:28;;;;;;;8.50;7.80;;;15.30;94.10;;;;;;4976181;28;20203;-87
2021/08/29 02:10:09;;;;;;;9.93;7.90;;;15.30;93.60;;;;;;4988383;28;20194;-86
2021/08/29 02:12:43;;;;;;;8.53;7.80;;;15.10;94.60;;;;;;4987808;28;20656;-88
2021/08/29 02:15:15;;;;;;;8.23;7.43;;;15.20;93.70;;;;;;4993425;28;20209;-87
2021/08/29 02:17:41;;;;;;;8.27;7.43;;;15.10;95.10;;;;;;4975348;28;20581;-88
2021/08/29 02:20:12;;;;;;;7.80;7.07;;;15.00;95.80;;;;;;4984639;28;20214;-87
2021/08/29 02:22:38;;;;;;;7.80;7.10;;;15.10;94.50;;;;;;4972433;28;20615;-87
2021/08/29 02:25:06;;;;;;;7.70;7.00;;;14.90;95.20;;;;;;4974543;28;20238;-87
2021/08/29 02:27:34;;;;;;;7.97;7.33;;;14.90;95.60;;;;;;5000860;28;20195;-87
2021/08/29 02:30:00;;;;;;;9.33;8.03;;;14.90;95.90;;;;;;4991130;28;20335;-88
2021/08/29 02:32:28;;;;;;;8.97;8.17;;;15.10;96.10;;;;;;4991113;28;20190;-87
2021/08/29 02:34:54;;;;;;;9.30;8.50;;;15.10;95.30;;;;;;4986153;28;20227;-88
2021/08/29 02:37:20;;;;;;;9.07;8.27;;;15.00;94.80;;;;;;4985883;28;20192;-87
2021/08/29 02:39:46;;;;;;;9.07;8.27;;;14.90;96.40;;;;;;4990088;28;20280;-88
2021/08/29 02:42:12;;;;;;;10.43;9.23;;;15.00;95.90;;;;;;4975338;28;20190;-88
2021/08/29 02:44:43;;;;;;;11.10;10.07;;;15.00;95.60;;;;;;4987425;28;20233;-88
2021/08/29 02:47:10;;;;;;;10.00;9.10;;;14.90;96.70;;;;;;4987384;28;20201;-88
2021/08/29 02:49:37;;;;;;;9.77;8.97;;;14.70;97.60;;;;;;4990935;28;20201;-88
2021/08/29 02:52:03;;;;;;;10.90;9.90;;;14.80;97.50;;;;;;4978327;28;20249;-88
2021/08/29 02:54:29;;;;;;;11.10;10.00;;;14.90;97.50;;;;;;4979861;28;20233;-88
2021/08/29 02:56:58;;;;;;;11.27;10.30;;;14.80;98.20;;;;;;4990634;28;20204;-88
2021/08/29 02:59:24;;;;;;;11.83;10.73;;;14.90;98.10;;;;;;4990236;28;20211;-88
2021/08/29 03:01:50;;;;;;;11.37;10.30;;;14.90;98.50;;;;;;4989060;28;20209;-88
2021/08/29 03:04:15;;;;;;;11.63;10.53;;;15.00;97.80;;;;;;4990162;28;20233;-88
2021/08/29 03:06:41;;;;;;;11.30;10.23;;;15.00;97.80;;;;;;4975901;28;20692;-88
2021/08/29 03:09:07;;;;;;;12.67;11.43;;;15.00;97.70;;;;;;4981687;28;20219;-88
2021/08/29 03:11:33;;;;;;;13.47;12.20;;;15.00;97.40;;;;;;4975450;28;20200;-89
2021/08/29 03:14:00;;;;;;;12.73;11.53;;;14.80;98.50;;;;;;4988618;28;20216;-88
2021/08/29 03:16:28;;;;;;;12.00;10.90;;;14.70;99.90;;;;;;5005067;28;20194;-88
2021/08/29 03:18:54;;;;;;;12.27;11.10;;;14.70;99.90;;;;;;4987280;28;20221;-88
2021/08/29 03:21:20;;;;;;;12.93;11.73;;;14.70;99.90;;;;;;4973334;28;20202;-88
2021/08/29 03:23:46;;;;;;;13.03;11.73;;;14.80;99.90;;;;;;4980310;28;20214;-88
2021/08/29 03:26:12;;;;;;;12.37;11.07;;;14.80;99.40;;;;;;4982196;28;20211;-89
2021/08/29 03:28:38;;;;;;;11.73;10.70;;;14.90;99.10;;;;;;4994570;28;20203;-88
2021/08/29 03:31:04;;;;;;;11.47;10.37;;;14.90;99.60;;;;;;4994898;28;20206;-88
2021/08/29 03:33:32;;;;;;;10.70;9.80;;;14.90;99.00;;;;;;4985397;28;20246;-89
2021/08/29 03:35:59;;;;;;;11.93;10.93;;;15.00;98.70;;;;;;4982663;28;20201;-88
2021/08/29 03:38:28;;;;;;;11.27;10.23;;;15.00;98.90;;;;;;5018253;28;20202;-89
2021/08/29 03:40:56;;;;;;;11.17;10.07;;;15.00;99.00;;;;;;5002919;28;20191;-89
2021/08/29 03:43:22;;;;;;;10.63;9.73;;;15.00;99.20;;;;;;4995408;28;20212;-89
2021/08/29 03:45:48;;;;;;;9.83;8.97;;;15.10;99.00;;;;;;4998548;28;20174;-88
2021/08/29 03:48:14;;;;;;;10.33;9.40;;;15.10;98.60;;;;;;5015791;28;20189;-88
2021/08/29 03:50:40;;;;;;;9.83;9.00;;;15.20;98.60;;;;;;5009699;28;20288;-89
2021/08/29 03:53:08;;;;;;;9.50;8.50;;;15.10;97.90;;;;;;4994392;28;20314;-89
2021/08/29 03:55:33;;;;;;;8.40;7.67;;;15.20;98.40;;;;;;4984491;28;20704;-89
2021/08/29 03:58:01;;;;;;;8.53;7.83;;;15.20;97.90;;;;;;4986558;28;20194;-89
2021/08/29 04:00:27;;;;;;;8.87;8.17;;;15.10;98.40;;;;;;4989752;28;20191;-89
2021/08/29 04:02:53;;;;;;;8.40;7.70;;;15.10;99.00;;;;;;4992190;28;20252;-90
2021/08/29 04:05:19;;;;;;;8.00;7.30;;;15.10;98.80;;;;;;4990048;28;20205;-89
2021/08/29 04:07:45;;;;;;;8.60;7.90;;;15.10;98.30;;;;;;4989365;28;20204;-89
2021/08/29 04:10:14;;;;;;;9.33;8.43;;;15.00;99.20;;;;;;4999889;28;20191;-89
2021/08/29 04:12:42;;;;;;;8.23;7.47;;;15.00;99.70;;;;;;5000764;28;20223;-88
2021/08/29 04:15:08;;;;;;;7.23;6.53;;;15.10;98.90;;;;;;4996143;28;20221;-88
2021/08/29 04:17:34;;;;;;;8.33;7.53;;;15.20;98.70;;;;;;4993158;28;20276;-88
2021/08/29 04:20:01;;;;;;;9.33;7.57;;;15.10;99.00;;;;;;4975530;28;20698;-88
2021/08/29 04:22:27;;;;;;;7.40;6.70;;;15.20;98.70;;;;;;4997895;28;20224;-88
2021/08/29 04:24:53;;;;;;;8.43;7.67;;;15.20;98.40;;;;;;4990135;28;20211;-88
2021/08/29 04:27:18;;;;;;;7.40;6.70;;;15.30;97.80;;;;;;5006687;28;20190;-89
2021/08/29 04:29:44;;;;;;;7.83;7.13;;;15.40;97.30;;;;;;4986617;28;20195;-89
2021/08/29 04:32:11;;;;;;;7.60;7.00;;;15.20;98.40;;;;;;4989382;28;20211;-88
2021/08/29 04:34:38;;;;;;;7.87;7.17;;;15.10;98.80;;;;;;4990419;28;20308;-89
2021/08/29 04:37:06;;;;;;;7.20;6.60;;;15.00;99.50;;;;;;4981097;28;20200;-88
2021/08/29 04:39:36;;;;;;;8.57;7.77;;;15.00;99.80;;;;;;4978954;28;20313;-88
2021/08/29 04:42:01;;;;;;;7.37;6.77;;;15.00;99.10;;;;;;4988911;28;20588;-88
2021/08/29 04:44:27;;;;;;;6.93;6.30;;;14.90;99.80;;;;;;4989751;28;20222;-88
2021/08/29 04:46:53;;;;;;;6.47;5.97;;;14.90;99.90;;;;;;4987253;28;20204;-88
2021/08/29 04:49:18;;;;;;;7.33;6.60;;;14.90;99.90;;;;;;4990656;28;20700;-88
2021/08/29 04:51:44;;;;;;;6.63;6.13;;;15.10;99.90;;;;;;4990137;28;20669;-88
2021/08/29 04:54:10;;;;;;;6.30;5.80;;;15.10;99.30;;;;;;4987227;28;20226;-88
2021/08/29 04:56:35;;;;;;;6.43;5.90;;;15.10;98.70;;;;;;4987868;28;20194;-88
2021/08/29 04:59:02;;;;;;;5.80;5.40;;;15.10;98.90;;;;;;4983270;28;20589;-89
2021/08/29 05:01:30;;;;;;;6.83;6.23;;;15.10;99.10;;;;;;4981725;28;20253;-88
2021/08/29 05:03:59;;;;;;;6.30;5.70;;;15.10;98.00;;;;;;4980107;28;20278;-88
2021/08/29 05:06:26;;;;;;;6.70;5.97;;;15.20;98.40;;;;;;4989723;28;20245;-88
2021/08/29 05:08:53;;;;;;;5.73;5.30;;;15.10;98.60;;;;;;4976695;28;20263;-89
2021/08/29 05:11:19;;;;;;;5.97;5.50;;;15.20;98.20;;;;;;4985142;28;20190;-88
2021/08/29 05:13:45;;;;;;;5.87;5.37;;;15.30;97.70;;;;;;4993048;28;20596;-88
2021/08/29 05:16:10;;;;;;;6.27;5.77;;;15.30;98.00;;;;;;4986521;28;20283;-89
2021/08/29 05:18:36;;;;;;;6.20;5.67;;;15.20;97.50;;;;;;4986481;28;20207;-89
2021/08/29 05:21:02;;;;;;;5.77;5.27;;;15.20;98.10;;;;;;4988282;28;20195;-89
2021/08/29 05:23:27;;;;;;;6.43;5.93;;;15.10;99.40;;;;;;4974049;28;20219;-88
2021/08/29 05:25:53;;;;;;;5.87;5.37;;;15.10;99.30;;;;;;4987433;28;20204;-88
2021/08/29 05:28:19;;;;;;;6.20;5.63;;;15.30;98.20;;;;;;4987007;28;20238;-88
2021/08/29 05:30:45;;;;;;;5.57;4.97;;;15.50;96.80;;;;;;4956398;28;20200;-88
2021/08/29 05:33:11;;;;;;;6.17;5.73;;;15.60;97.00;;;;;;4977589;28;20226;-89
2021/08/29 05:35:36;;;;;;;6.37;5.80;;;15.40;97.60;;;;;;4978621;28;20314;-89
2021/08/29 05:38:02;;;;;;;5.57;5.17;;;15.40;98.20;;;;;;4988625;28;20197;-90
2021/08/29 05:40:28;;;;;;;6.93;6.10;;;15.40;97.80;;;;;;4988981;28;20283;-88
2021/08/29 05:42:53;;;;;;;6.93;6.27;;;15.50;97.20;;;;;;4986086;28;20234;-88
2021/08/29 05:45:19;;;;;;;5.70;5.20;;;15.40;97.80;;;;;;4988190;28;20199;-88
2021/08/29 05:47:45;;;;;;;5.97;5.37;;;15.50;97.70;;;;;;4990295;28;20190;-88
2021/08/29 05:50:10;;;;;;;7.27;5.20;;;15.70;96.70;;;;;;4986832;28;20210;-89
2021/08/29 05:52:36;;;;;;;6.00;5.30;;;15.80;95.60;;;;;;4987233;28;20233;-88
2021/08/29 05:55:02;;;;;;;6.00;5.50;;;15.80;95.70;;;;;;4987845;28;20277;-88
2021/08/29 05:57:28;;;;;;;5.90;5.40;;;15.70;96.30;;;;;;4985480;28;20201;-88
2021/08/29 05:59:54;;;;;;;5.03;4.50;;;15.70;96.10;;;;;;4985519;28;20715;-88
2021/08/29 06:02:19;;;;;;;7.10;5.07;;;15.80;95.90;;;;;;4972842;28;20182;-88
2021/08/29 06:04:45;;;;;;;6.57;4.60;;;15.80;95.40;;;;;;4990318;28;20284;-88
2021/08/29 06:07:11;;;;;;;5.47;5.00;;;15.90;95.50;;;;;;4986050;28;20210;-88
2021/08/29 06:09:36;;;;;;;5.57;5.17;;;16.00;94.80;;;;;;4990188;28;20187;-88
2021/08/29 06:12:02;;;;;;;5.33;4.43;;;16.10;95.60;;;;;;4974414;28;20232;-88
2021/08/29 06:14:28;;;;;;;4.97;4.37;;;16.10;95.30;;;;;;4985427;28;20233;-88
2021/08/29 06:16:54;;;;;;;5.67;4.77;;;16.10;95.30;;;;;;4989064;28;20198;-88
2021/08/29 06:19:19;;;;;;;5.27;4.87;;;16.10;96.10;;;;;;4988599;28;20191;-88
2021/08/29 06:21:45;;;;;;;4.37;4.07;;;16.10;95.70;;;;;;4980937;28;20669;-89
2021/08/29 06:24:11;;;;;;;5.27;4.70;;;16.20;96.20;;;;;;4975419;28;20236;-89
2021/08/29 06:26:36;;;;;;;4.87;4.40;;;16.20;95.50;;;;;;4972763;28;20211;-89
2021/08/29 06:29:02;;;;;;;4.10;3.80;;;16.30;95.90;;;;;;5001281;28;20187;-88
2021/08/29 06:31:30;;;;;;;4.27;3.87;;;16.30;95.10;;;;;;5010446;28;20207;-89
2021/08/29 06:33:56;;;;;;;3.90;3.60;;;16.40;95.00;;;;;;4992336;28;20232;-89
2021/08/29 06:36:22;;;;;;;3.60;3.30;;;16.30;95.20;;;;;;4999589;28;20197;-89
2021/08/29 06:38:51;;;;;;;3.20;3.00;;;16.40;94.40;;;;;;5007503;28;20192;-91
2021/08/29 06:41:16;;;;;;;2.67;2.47;;;16.40;94.50;;;;;;5017286;28;20187;-89
2021/08/29 06:43:42;;;;;;;3.30;3.10;;;16.40;94.70;;;;;;5002840;28;20280;-89
2021/08/29 06:46:07;;;;;;;5.27;3.10;;;16.50;95.30;;;;;;4992965;28;20211;-88
2021/08/29 06:48:33;;;;;;;3.50;3.20;;;16.50;95.40;;;;;;4991141;28;20212;-88
2021/08/29 06:50:59;;;;;;;3.53;3.23;;;16.50;95.30;;;;;;5001411;28;20678;-89
2021/08/29 06:53:24;;;;;;;4.63;3.13;;;16.50;94.80;;;;;;4992074;28;20223;-89
2021/08/29 06:55:50;;;;;;;3.50;3.20;;;16.50;95.40;;;;;;4974449;28;20676;-89
2021/08/29 06:58:16;;;;;;;3.50;3.20;;;16.60;95.20;;;;;;5003601;28;20781;-88
2021/08/29 07:00:41;;;;;;;3.80;3.50;;;16.50;95.40;;;;;;5003082;28;20198;-88
2021/08/29 07:03:07;;;;;;;4.60;3.60;;;16.50;95.50;;;;;;4994861;28;20252;-88
2021/08/29 07:05:33;;;;;;;3.90;3.47;;;16.50;95.40;;;;;;4990895;28;20724;-89
2021/08/29 07:07:59;;;;;;;4.07;3.67;;;16.50;95.40;;;;;;5004824;28;20196;-90
2021/08/29 07:10:24;;;;;;;4.10;3.57;;;16.50;94.70;;;;;;5006629;28;20210;-88
2021/08/29 07:12:50;;;;;;;3.50;3.20;;;16.50;95.20;;;;;;5005663;28;20236;-89
2021/08/29 07:15:16;;;;;;;4.27;3.37;;;16.40;95.90;;;;;;5002054;28;20247;-88
2021/08/29 07:17:41;;;;;;;4.00;3.70;;;16.50;95.30;;;;;;5003094;28;20202;-88
2021/08/29 07:20:08;;;;;;;3.70;3.40;;;16.60;95.40;;;;;;4998861;28;20188;-88
2021/08/29 07:22:33;;;;;;;3.47;3.27;;;16.70;94.70;;;;;;4997851;28;20198;-89
2021/08/29 07:24:59;;;;;;;3.40;3.10;;;16.60;95.70;;;;;;5005266;28;20250;-89
2021/08/29 07:27:25;;;;;;;3.50;3.22;;;16.60;94.50;;;;;;5002123;28;20203;-89
2021/08/29 07:29:50;;;;;;;3.90;3.50;;;16.60;95.50;;;;;;4992882;28;20207;-89
2021/08/29 07:32:16;;;;;;;3.57;3.20;;;16.50;96.20;;;;;;4997849;28;20244;-88
2021/08/29 07:34:42;;;;;;;3.40;3.20;;;16.60;96.30;;;;;;5001114;28;20215;-88
2021/08/29 07:37:08;;;;;;;6.30;3.00;;;16.70;96.00;;;;;;5005709;28;20199;-89
2021/08/29 07:39:33;;;;;;;3.57;3.27;;;16.70;96.80;;;;;;5019081;28;20188;-90
2021/08/29 07:41:59;;;;;;;3.00;2.80;;;16.80;95.60;;;;;;5001885;28;20258;-90
2021/08/29 07:44:25;;;;;;;3.20;2.80;;;16.90;93.70;;;;;;4994784;28;20239;-89
2021/08/29 07:46:51;;;;;;;3.10;2.90;;;17.00;95.10;;;;;;5004964;28;20227;-89
2021/08/29 07:49:16;;;;;;;3.23;2.93;;;16.90;95.00;;;;;;4995201;28;20197;-89
2021/08/29 07:51:42;;;;;;;3.40;3.10;;;17.00;93.70;;;;;;4994922;28;20200;-89
2021/08/29 07:54:08;;;;;;;3.05;2.85;;;17.10;94.30;;;;;;5004770;28;20578;-88
2021/08/29 07:56:34;;;;;;;2.83;2.58;;;17.00;92.80;;;;;;4994899;28;20670;-90
2021/08/29 07:58:59;;;;;;;2.77;2.57;;;16.80;94.50;;;;;;4994549;28;20192;-89
2021/08/29 08:01:25;;;;;;;2.50;2.40;;;16.80;93.20;;;;;;5004211;28;20199;-89
2021/08/29 08:03:50;;;;;;;5.47;2.93;;;16.80;94.20;;;;;;5004786;28;20704;-88
2021/08/29 08:06:16;;;;;;;2.97;2.77;;;16.90;94.80;;;;;;5005490;28;20204;-89
2021/08/29 08:08:42;;;;;;;2.47;2.30;;;17.00;93.00;;;;;;5000814;28;20187;-88
2021/08/29 08:11:07;;;;;;;3.10;2.80;;;17.10;93.80;;;;;;4989461;28;20884;-89
2021/08/29 08:13:33;;;;;;;2.70;2.50;;;17.10;92.70;;;;;;5003521;28;20233;-89
2021/08/29 08:16:00;;;;;;;3.13;2.83;;;17.10;92.50;;;;;;5001886;28;20180;-89
2021/08/29 08:18:26;;;;;;;2.87;2.67;;;17.10;92.10;;;;;;4999782;28;20261;-89
2021/08/29 08:20:52;;;;;;;2.57;2.37;;;17.20;92.00;;;;;;4994993;28;20455;-89
2021/08/29 08:23:18;;;;;;;2.43;2.23;;;17.00;92.60;;;;;;4991780;28;20216;-89
2021/08/29 08:25:44;;;;;;;2.40;2.30;;;17.20;93.60;;;;;;4983260;28;20680;-89
2021/08/29 08:28:10;;;;;;;2.50;2.30;;;17.30;92.10;;;;;;4996288;28;20192;-89
2021/08/29 08:30:35;;;;;;;2.70;2.50;;;17.40;92.40;;;;;;4998823;28;20253;-89
2021/08/29 08:33:01;;;;;;;2.22;2.13;;;17.40;91.50;;;;;;5001354;28;20222;-89
2021/08/29 08:35:27;;;;;;;2.22;2.13;;;17.40;91.40;;;;;;4998708;28;20204;-88
2021/08/29 08:37:52;;;;;;;3.22;2.40;;;17.60;90.40;;;;;;4998270;28;20251;-89
2021/08/29 08:40:21;;;;;;;2.40;2.30;;;17.60;90.10;;;;;;4998986;28;20205;-89
2021/08/29 08:42:48;;;;;;;2.63;2.42;;;17.60;90.00;;;;;;4994923;28;20196;-89
2021/08/29 08:45:14;;;;;;;2.78;2.58;;;17.70;90.40;;;;;;5000446;28;20369;-88
2021/08/29 08:47:43;;;;;;;2.67;2.47;;;17.70;89.00;;;;;;5013782;28;20199;-88
2021/08/29 08:50:10;;;;;;;3.30;2.38;;;17.70;89.50;;;;;;5000535;28;20194;-89
2021/08/29 08:52:38;;;;;;;2.45;2.35;;;17.70;89.50;;;;;;4998311;28;20661;-89
2021/08/29 08:55:05;;;;;;;2.65;2.40;;;17.80;89.70;;;;;;4992233;28;20613;-88
2021/08/29 08:57:30;;;;;;;2.53;2.33;;;17.70;90.50;;;;;;4995964;28;20193;-89
2021/08/29 08:59:56;;;;;;;2.60;2.45;;;17.80;90.30;;;;;;4998666;28;20224;-88
2021/08/29 09:02:23;;;;;;;2.80;2.60;;;17.80;89.50;;;;;;4994250;28;20194;-88
2021/08/29 09:04:50;;;;;;;3.03;2.80;;;17.80;90.40;;;;;;4999159;28;20211;-89
2021/08/29 09:07:16;;;;;;;2.60;2.40;;;17.80;88.50;;;;;;4998962;28;20545;-88
2021/08/29 09:09:42;;;;;;;2.70;2.50;;;17.80;88.20;;;;;;5000754;28;20700;-88
2021/08/29 09:12:08;;;;;;;2.80;2.60;;;17.80;88.10;;;;;;5000466;28;20192;-88
2021/08/29 09:14:44;;;;;;;2.53;2.40;;;17.70;89.00;;;;;;4996523;28;20222;-88
2021/08/29 09:17:22;;;;;;;3.55;2.60;;;17.80;88.10;;;;;;4997147;28;20198;-88
2021/08/29 09:19:48;;;;;;;2.72;2.38;;;17.90;89.00;;;;;;4995428;28;20258;-88
2021/08/29 09:22:14;;;;;;;2.55;2.45;;;17.80;88.50;;;;;;4999985;28;20201;-88
2021/08/29 09:24:49;;;;;;;2.67;2.47;;;17.90;89.60;;;;;;4997494;28;20206;-88
2021/08/29 09:27:16;;;;;;;2.92;2.72;;;17.60;89.50;;;;;;4999026;28;20250;-88
2021/08/29 09:29:43;;;;;;;2.33;2.22;;;17.80;90.10;;;;;;5002503;28;20195;-88
2021/08/29 09:32:10;;;;;;;2.67;2.47;;;17.80;90.40;;;;;;5006593;28;20253;-89
2021/08/29 09:34:36;;;;;;;2.53;2.33;;;17.90;91.20;;;;;;4994209;28;20260;-89
2021/08/29 09:37:02;;;;;;;2.80;2.60;;;18.10;89.50;;;;;;4985478;28;20254;-88
2021/08/29 09:39:28;;;;;;;2.53;2.33;;;18.20;89.20;;;;;;4994444;28;20205;-89
2021/08/29 09:42:02;;;;;;;3.38;2.50;;;18.20;86.70;;;;;;5000008;28;20202;-89
2021/08/29 09:44:33;;;;;;;2.83;2.53;;;18.10;86.50;;;;;;4996953;28;20202;-89
2021/08/29 09:47:05;;;;;;;2.70;2.50;;;18.10;87.30;;;;;;4993809;28;20204;-89
2021/08/29 09:49:36;;;;;;;3.67;2.85;;;18.00;89.10;;;;;;5001270;28;20202;-89
2021/08/29 09:52:04;;;;;;;2.92;2.72;;;17.90;87.30;;;;;;5006508;28;20246;-89
2021/08/29 09:54:43;;;;;;;2.47;2.28;;;17.90;87.80;;;;;;4993523;28;20217;-89
2021/08/29 09:57:11;;;;;;;2.92;2.72;;;18.00;88.90;;;;;;4990728;28;20226;-89
2021/08/29 09:59:48;;;;;;;3.47;3.17;;;18.00;88.50;;;;;;4989930;28;20224;-89
2021/08/29 10:02:34;;;;;;;2.90;2.70;;;17.90;88.50;;;;;;4989977;28;20181;-89
2021/08/29 10:05:17;;;;;;;9.48;8.57;;;17.80;90.30;;;;;;4988583;28;20224;-89
2021/08/29 10:08:06;;;;;;;3.45;3.20;;;17.90;91.30;;;;;;4996846;28;20198;-89
2021/08/29 10:10:37;;;;;;;5.05;3.00;;;18.00;89.80;;;;;;4991713;28;20213;-89
2021/08/29 10:13:03;;;;;;;3.65;3.35;;;17.90;90.40;;;;;;4990320;28;20339;-88
2021/08/29 10:15:30;;;;;;;3.40;3.20;;;17.90;90.30;;;;;;4996117;28;20199;-89
2021/08/29 10:17:59;;;;;;;4.05;3.65;;;17.80;90.20;;;;;;4990357;28;20198;-89
2021/08/29 10:20:26;;;;;;;3.50;3.20;;;17.80;91.20;;;;;;4991113;28;20212;-89
2021/08/29 10:22:52;;;;;;;3.60;3.30;;;17.70;88.20;;;;;;4994378;28;20200;-88
2021/08/29 10:25:19;;;;;;;3.50;3.30;;;17.70;89.40;;;;;;4990405;28;20228;-88
2021/08/29 10:27:56;;;;;;;4.18;3.88;;;17.50;90.00;;;;;;4993890;28;20196;-88
2021/08/29 10:30:26;;;;;;;4.27;3.90;;;17.50;91.30;;;;;;4994662;28;20195;-88
2021/08/29 10:32:56;;;;;;;4.13;3.83;;;17.30;90.20;;;;;;4995765;28;20208;-88
2021/08/29 10:35:23;;;;;;;4.07;3.75;;;17.30;91.90;;;;;;4988341;28;20211;-88
2021/08/29 10:37:49;;;;;;;3.78;3.47;;;17.30;93.00;;;;;;4994114;28;20191;-89
2021/08/29 10:40:15;;;;;;;4.20;3.72;;;17.40;93.20;;;;;;4995989;28;20250;-88
2021/08/29 10:42:43;;;;;;;4.10;3.80;;;17.40;93.40;;;;;;4986062;28;20746;-88
2021/08/29 10:45:11;;;;;;;3.95;3.65;;;17.50;94.10;;;;;;4993390;28;20242;-88
2021/08/29 10:47:42;;;;;;;3.78;3.47;;;17.60;92.50;;;;;;4994405;28;20236;-89
2021/08/29 10:50:09;;;;;;;4.60;4.20;;;17.70;92.00;;;;;;4999421;28;20201;-89
2021/08/29 10:52:38;;;;;;;4.22;3.72;;;17.60;92.20;;;;;;5010837;28;20232;-89
2021/08/29 10:55:07;;;;;;;4.30;4.00;;;17.60;91.60;;;;;;4995602;28;20307;-89
2021/08/29 10:57:38;;;;;;;4.85;4.55;;;17.70;92.20;;;;;;4994983;28;20296;-88
2021/08/29 11:00:26;;;;;;;5.00;4.43;;;17.60;91.70;;;;;;4996494;28;20235;-88
2021/08/29 11:02:52;;;;;;;4.63;4.22;;;17.60;91.00;;;;;;5006959;28;20181;-90
2021/08/29 11:05:27;;;;;;;4.57;4.20;;;17.70;92.10;;;;;;5010975;28;20267;-88
2021/08/29 11:07:53;;;;;;;4.72;4.32;;;17.70;91.90;;;;;;4986702;28;20213;-89
2021/08/29 11:10:37;;;;;;;5.10;4.60;;;17.70;92.10;;;;;;4997162;28;20193;-88
2021/08/29 11:13:27;;;;;;;5.30;4.90;;;17.70;91.30;;;;;;4994669;28;20221;-88
2021/08/29 11:16:14;;;;;;;4.78;4.10;;;17.70;92.10;;;;;;4990946;28;20188;-89
2021/08/29 11:18:58;;;;;;;5.57;5.13;;;17.70;92.40;;;;;;4993374;28;20244;-88
2021/08/29 11:21:25;;;;;;;5.05;4.63;;;17.70;92.60;;;;;;4995908;28;20248;-88
2021/08/29 11:23:51;;;;;;;5.05;4.75;;;17.60;90.90;;;;;;4992601;28;20209;-88
2021/08/29 11:26:28;;;;;;;4.80;4.40;;;17.60;92.50;;;;;;4997842;28;20196;-89
2021/08/29 11:28:54;;;;;;;6.35;5.40;;;17.50;92.80;;;;;;4986802;28;20280;-89
2021/08/29 11:31:48;;;;;;;5.55;5.00;;;17.50;92.00;;;;;;4985550;28;20230;-89
2021/08/29 11:34:14;;;;;;;6.43;5.35;;;17.60;90.50;;;;;;5014847;28;20228;-88
2021/08/29 11:36:40;;;;;;;5.80;5.40;;;17.50;90.70;;;;;;4997540;28;20204;-88
2021/08/29 11:39:33;;;;;;;6.53;5.28;;;17.60;90.30;;;;;;4992118;28;20193;-89
2021/08/29 11:42:31;;;;;;;6.70;6.10;;;17.70;90.00;;;;;;4995182;28;20184;-87
2021/08/29 11:44:58;;;;;;;5.97;5.47;;;17.60;90.10;;;;;;4983953;28;20258;-88
2021/08/29 11:47:45;;;;;;;6.00;5.50;;;17.60;91.00;;;;;;5000484;28;20189;-88
2021/08/29 11:50:12;;;;;;;5.75;5.28;;;17.60;91.20;;;;;;4997795;28;20612;-88
2021/08/29 11:52:39;;;;;;;6.47;5.88;;;17.70;90.20;;;;;;4998152;28;20196;-88
2021/08/29 11:55:10;;;;;;;5.75;5.35;;;17.80;88.90;;;;;;4994428;28;20579;-88
2021/08/29 11:57:54;;;;;;;7.10;6.47;;;17.70;88.70;;;;;;5000657;28;20197;-88
2021/08/29 12:00:24;;;;;;;6.10;5.60;;;17.60;90.20;;;;;;5004598;28;20190;-88
2021/08/29 12:02:54;;;;;;;6.18;5.53;;;17.80;89.70;;;;;;4999364;28;20202;-88
2021/08/29 12:05:21;;;;;;;6.30;5.70;;;17.80;89.30;;;;;;4999668;28;20203;-88
2021/08/29 12:08:05;;;;;;;6.50;6.00;;;17.90;89.80;;;;;;5012711;28;20662;-88
2021/08/29 12:10:32;;;;;;;6.47;5.97;;;18.00;89.50;;;;;;5005055;28;20207;-88
2021/08/29 12:13:01;;;;;;;6.32;5.93;;;17.90;89.70;;;;;;5004114;28;20224;-88
2021/08/29 12:15:28;;;;;;;7.00;5.88;;;17.80;91.50;;;;;;4999919;28;20262;-87
2021/08/29 12:18:00;;;;;;;6.82;6.25;;;17.80;90.20;;;;;;4995015;28;20191;-88
2021/08/29 12:20:27;;;;;;;6.20;5.80;;;17.90;89.40;;;;;;5006754;28;20216;-88
2021/08/29 12:23:00;;;;;;;6.50;6.00;;;17.80;90.00;;;;;;5010397;28;20205;-88
2021/08/29 12:25:26;;;;;;;7.10;6.50;;;17.70;88.90;;;;;;4987067;28;20202;-88
2021/08/29 12:28:14;;;;;;;6.70;6.05;;;17.60;89.40;;;;;;5002327;28;20210;-88
2021/08/29 12:30:40;;;;;;;6.85;6.32;;;17.80;89.20;;;;;;5006012;28;20186;-88
2021/08/29 12:33:10;;;;;;;6.63;6.03;;;17.90;88.90;;;;;;4992257;28;20213;-88
2021/08/29 12:35:37;;;;;;;7.03;6.43;;;17.90;88.50;;;;;;4999016;28;20293;-88
2021/08/29 12:38:02;;;;;;;6.93;6.43;;;17.80;89.50;;;;;;4995965;28;20197;-88
2021/08/29 12:40:32;;;;;;;6.07;5.50;;;18.00;87.20;;;;;;5000933;28;20197;-88
2021/08/29 12:42:57;;;;;;;6.93;6.32;;;18.00;88.20;;;;;;5008720;28;20194;-87
2021/08/29 12:45:23;;;;;;;7.10;6.60;;;18.00;88.20;;;;;;4997610;28;20202;-87
2021/08/29 12:47:49;;;;;;;6.50;5.90;;;18.00;88.70;;;;;;4992935;28;20194;-88
2021/08/29 12:50:19;;;;;;;6.38;5.88;;;18.00;87.60;;;;;;4988887;28;20257;-88